메인 페이지
METAR-TAF:

METAR-TAF

공항 :

쿠웨이트 국제공항

쿠웨이트, 쿠웨이트

위도: 29-13N, 경도: 047-59E, 고도: 55m

현재 날씨관측

예보는 28분 전, 23:00시(UTC)에 발표되었습니다.
북북서15kt
온도 37°C
습도 18%
기압 999 hPa
시정 10km 이상
1500m 미만 상공 구름 및 적란운 없음

METAR: OKBK 212300Z 34015KT CAVOK 37/09 Q0999 NOSIG

시각: 02:28 (23:28 UTC)

예보

예보는 6 시간 43분 전, 16:45시(UTC)에 발표되었습니다.
예보 대상 시간: 21일 18시부터 22일 24시까지 (UTC)
8kt, 순간 최대 풍속 18kt
시정 10km 이상
1500m 미만 상공 구름 및 적란운 없음

TAF: OKBK 211645Z 2118/2224 36008G18KT CAVOK

4,000개 이상의 공항 관측 자료 및 예보 (METAR 및 TAF 보고).

지도상에서 검색 가능한 기상관측소가 노란 점과 빨간 점으로 표시되어 있습니다.

기상관측소 명을 보려면 표시 위로 마우스를 이동하세요.

날씨 관측과 예보를 보려면 클릭하세요.

지도 변경 : 확대하려면 엑스 표시가 있는 녹색 버튼, 축소하려면 빼기 표시가 있는 녹색 버튼, 다음 페이지의 지도를 보려면 녹색 화살표를 클릭하세요.


METAR-TAF: